Attleboro, Massachusetts
Current Conditions -  °F | °C
As of 10:15 AM on Wednesday 26 Nov 2014 (Local Time) from KSFZ Reporting Station
Overcast Overcast  
Wind Chill:   Ceiling: 2500
Heat Index:   Visibility: 3mi
Dew Point: -2°   Wind: 8mph
Humidity: 70%   Direction: 40°NE
Pressure: 30.11"   Gusts: NA
Location:  41.95°N, 71.28°W
Report Text: KSFZ 261515Z 04007KT 3SM BKN025 OVC034 03/M02 A3011 RMK AO1 P0002
Loading
Personal Weather Stations






























Interactive Weather Map New forecast layout! Learn more

10-Day Weather Forecast

Advertisements
Track Severe Weather on mobile